Latest Weather Observations for Longreach

IDQ60801

Issued at 2:05 pm EST Wednesday 16 April 2014 (issued every 30 minutes, with the page automatically refreshed every 10 minutes)

About weather observations | Map of weather stations | Latest weather observations for QLD | Other Formats
Station Details ID: 036031 Name: LONGREACH AERO Lat: -23.44 Lon: 144.28 Height: 192.2 m
Data from the previous 72 hours. | See also: Recent months at Longreach
Date/Time
EST
Temp
°C
App
Temp
°C
Dew
Point
Rel
Hum
%
Delta-T
°C
Wind Press
QNH
hPa
Press
MSL
hPa
Rain
since 9 am
mm
Dir
 
Spd
km/h
Gust
km/h
Spd
kts
Gust
kts
16/02:00pm 31.6 29.5 8.4 23 13.0 ESE 9 17 5 9 1013.5 - 0.2
16/01:30pm 31.3 28.9 10.0 26 12.2 SSW 13 20 7 11 1013.8 - 0.2
16/01:00pm 30.7 30.3 15.2 39 9.6 ESE 11 19 6 10 1014.3 - 0.2
16/12:30pm 30.2 30.0 15.6 41 9.1 S 11 13 6 7 1014.8 - 0.2
16/12:00pm 29.1 28.8 16.5 46 7.9 SSE 13 17 7 9 1015.2 1014.3 0.2
16/11:30am 28.4 28.9 16.6 48 7.4 SE 9 13 5 7 1015.8 - 0.2
16/11:00am 28.3 29.4 17.0 50 7.1 NNW 7 15 4 8 1016.3 - 0.2
16/10:30am 27.3 28.2 17.5 55 6.2 ENE 9 17 5 9 1016.5 - 0.2
16/10:00am 26.5 27.2 18.0 59 5.4 E 11 15 6 8 1016.6 - 0.0
16/09:30am 24.9 26.0 17.9 65 4.4 E 9 15 5 8 1016.6 - 0.0
16/09:00am 23.5 23.9 18.1 71 3.4 ESE 13 17 7 9 1016.4 1015.5 1.2
16/08:30am 22.2 23.0 18.2 78 2.5 SE 11 13 6 7 1016.4 - 1.2
16/08:00am 20.0 20.2 17.7 86 1.4 ESE 13 17 7 9 1016.2 - 1.2
16/07:30am 18.7 18.9 16.7 88 1.2 S 11 13 6 7 1016.1 - 1.2
16/07:00am 18.1 18.6 16.6 91 0.9 SE 9 13 5 7 1015.8 - 1.2
16/06:30am 17.3 17.0 16.5 95 0.5 SE 13 15 7 8 1015.4 - 1.2
16/06:00am 17.6 17.7 16.4 93 0.7 SSE 11 13 6 7 1014.8 1013.9 1.2
16/05:30am 17.6 18.1 16.6 94 0.6 ESE 9 13 5 7 1014.5 - 1.2
16/05:00am 17.8 18.7 16.6 93 0.7 SSE 7 9 4 5 1014.2 - 1.2
16/04:30am 18.3 18.5 16.8 91 0.9 S 11 13 6 7 1014.1 - 1.2
16/04:00am 18.4 18.4 17.1 92 0.8 SSW 13 17 7 9 1014.1 - 1.2
16/03:30am 18.2 19.0 17.4 95 0.5 SW 9 11 5 6 1014.2 - 1.2
16/03:00am 18.3 19.2 17.5 95 0.5 SW 9 11 5 6 1014.1 1013.2 1.2
16/02:30am 18.2 20.8 17.4 95 0.5 CALM 0 0 0 0 1014.1 - 1.2
16/02:00am 18.9 20.4 17.6 92 0.8 S 6 7 3 4 1014.4 - 1.2
16/01:30am 19.1 20.5 17.8 92 0.8 SE 7 7 4 4 1014.5 - 1.2
16/01:00am 20.0 21.4 17.7 86 1.4 SE 7 9 4 5 1014.6 - 1.2
16/12:30am 20.5 21.1 17.8 84 1.7 SE 11 15 6 8 1014.6 - 1.2
16/12:00am 20.4 21.4 17.8 85 1.6 E 9 11 5 6 1015.0 1014.1 1.2
 
Date/Time
EST
Temp
°C
App
Temp
°C
Dew
Point
Rel
Hum
%
Delta-T
°C
Wind Press
QNH
hPa
Press
MSL
hPa
Rain
since 9 am
mm
Dir
 
Spd
km/h
Gust
km/h
Spd
kts
Gust
kts
15/11:30pm 21.2 22.3 18.0 82 2.0 ESE 9 11 5 6 1015.2 - 1.2
15/11:00pm 21.1 21.5 18.1 83 1.9 ENE 13 15 7 8 1014.8 - 1.2
15/10:30pm 21.3 22.0 17.9 81 2.1 NE 11 15 6 8 1015.5 - 1.2
15/10:00pm 22.2 19.9 17.7 75 2.8 N 26 30 14 16 1015.4 - 1.2
15/09:30pm 22.1 23.0 18.3 79 2.4 ESE 11 13 6 7 1014.6 - 1.2
15/09:00pm 21.5 22.1 18.7 84 1.8 ENE 13 15 7 8 1014.6 1013.7 1.2
15/08:30pm 22.1 22.6 18.3 79 2.4 ESE 13 17 7 9 1014.1 - 1.2
15/08:00pm 21.5 22.7 19.1 86 1.5 ENE 11 17 6 9 1013.6 - 1.2
15/07:30pm 22.1 21.7 18.8 81 2.1 SE 19 24 10 13 1013.1 - 1.2
15/07:00pm 22.2 22.3 18.4 79 2.4 SSE 15 17 8 9 1012.8 - 1.2
15/06:30pm 22.6 22.8 18.5 77 2.6 SE 15 17 8 9 1012.5 - 1.2
15/05:48pm 21.8 20.4 18.8 83 1.9 S 24 32 13 17 1012.8 - 1.0
15/05:27pm 22.9 19.9 18.7 77 2.7 SSW 32 37 17 20 1012.9 - 0.4
15/05:20pm 25.7 21.3 16.7 57 5.6 SW 35 50 19 27 1012.6 - 0.0
15/05:00pm 28.0 25.6 15.3 46 7.8 ESE 22 26 12 14 1011.6 - 0.0
15/04:30pm 29.1 28.7 16.1 45 8.1 SSE 13 15 7 8 1011.3 - 0.0
15/04:00pm 27.3 25.9 16.6 52 6.7 SW 19 32 10 17 1011.6 - 0.0
15/03:30pm 31.4 28.4 13.8 34 10.7 N 22 28 12 15 1011.2 - 0.0
15/03:00pm 31.3 29.3 13.9 34 10.6 NNE 17 20 9 11 1011.2 1010.2 0.0
15/02:30pm 31.4 30.1 13.8 34 10.7 N 13 19 7 10 1011.5 - 0.0
15/02:00pm 32.3 31.5 14.0 33 11.2 NNW 11 19 6 10 1011.9 - 0.0
15/01:30pm 31.7 30.3 14.5 35 10.6 NW 15 24 8 13 1012.3 - 0.0
15/01:00pm 31.4 30.1 14.7 36 10.3 N 15 22 8 12 1012.7 - 0.0
15/12:30pm 31.0 28.6 12.5 32 11.0 N 17 26 9 14 1013.3 - 0.0
15/12:00pm 30.2 30.0 15.8 41 9.0 NE 11 19 6 10 1013.8 1012.9 0.0
15/11:30am 30.8 29.2 16.4 42 9.1 N 20 28 11 15 1014.3 - 0.0
15/11:00am 29.6 28.1 16.2 44 8.4 NE 19 30 10 16 1014.6 - 0.0
15/10:30am 28.6 27.1 16.3 47 7.7 NE 19 28 10 15 1014.9 - 0.0
15/10:00am 27.5 25.7 16.1 49 7.1 NE 20 30 11 16 1015.0 - 0.0
15/09:30am 26.4 23.1 16.0 52 6.4 NE 28 37 15 20 1015.0 - 0.0
15/09:00am 26.2 23.5 16.6 55 6.0 NE 26 33 14 18 1014.9 1014.0 0.4
15/08:30am 23.6 21.8 15.9 62 4.7 ENE 20 28 11 15 1014.8 - 0.4
15/08:00am 22.5 21.5 15.5 64 4.2 E 15 22 8 12 1014.3 - 0.4
15/07:30am 21.0 20.3 15.5 71 3.3 ESE 13 17 7 9 1014.0 - 0.4
15/07:00am 20.6 19.7 15.8 74 2.9 E 15 20 8 11 1013.8 - 0.4
15/06:30am 20.7 19.9 16.1 75 2.8 ESE 15 15 8 8 1013.4 - 0.4
15/06:00am 20.8 20.8 17.1 79 2.3 SE 13 15 7 8 1013.1 1012.2 0.4
15/05:30am 21.0 21.5 17.4 80 2.2 S 11 11 6 6 1013.1 - 0.4
15/05:00am 20.6 21.6 17.7 83 1.8 SE 9 11 5 6 1012.7 - 0.4
15/04:30am 21.3 21.8 17.4 78 2.4 E 11 13 6 7 1012.5 - 0.4
15/04:00am 21.5 22.9 17.3 77 2.6 N 6 9 3 5 1012.3 - 0.4
15/03:30am 21.6 21.9 17.1 75 2.8 NNW 11 15 6 8 1012.4 - 0.4
15/03:00am 21.4 21.5 17.4 78 2.5 W 13 20 7 11 1012.7 1011.8 0.4
15/02:30am 21.3 21.4 17.4 78 2.4 SE 13 17 7 9 1012.7 - 0.4
15/02:00am 21.6 21.1 16.9 74 2.9 SE 15 17 8 9 1012.7 - 0.4
15/01:30am 22.3 21.1 16.2 68 3.7 ESE 17 19 9 10 1012.7 - 0.4
15/01:00am 22.7 21.1 16.0 66 4.1 ESE 19 22 10 12 1012.6 - 0.4
15/12:30am 22.9 21.5 16.6 67 3.9 ESE 19 24 10 13 1012.6 - 0.4
15/12:00am 22.7 22.2 17.8 74 3.1 ESE 17 22 9 12 1012.8 1011.9 0.4
 
Date/Time
EST
Temp
°C
App
Temp
°C
Dew
Point
Rel
Hum
%
Delta-T
°C
Wind Press
QNH
hPa
Press
MSL
hPa
Rain
since 9 am
mm
Dir
 
Spd
km/h
Gust
km/h
Spd
kts
Gust
kts
14/11:30pm 23.0 21.9 17.2 70 3.6 ESE 19 24 10 13 1013.0 - 0.4
14/11:00pm 22.4 21.2 18.3 77 2.6 SE 22 30 12 16 1013.4 - 0.4
14/10:30pm 22.5 21.1 18.7 79 2.4 SSE 24 30 13 16 1013.6 - 0.4
14/10:00pm 21.8 22.4 19.5 87 1.5 S 15 22 8 12 1013.8 - 0.4
14/09:30pm 22.9 21.4 18.5 76 2.8 SSW 24 32 13 17 1013.5 - 0.2
14/09:00pm 22.9 19.1 19.0 78 2.5 SW 37 50 20 27 1013.2 1012.3 0.2
14/08:51pm 24.2 21.9 18.4 70 3.7 SW 28 52 15 28 1012.9 - 0.2
14/08:30pm 26.8 27.9 17.1 55 6.1 ESE 7 9 4 5 1012.1 - 0.2
14/08:00pm 26.5 28.0 17.5 57 5.7 E 6 9 3 5 1011.6 - 0.2
14/07:30pm 26.9 27.4 15.5 49 7.0 E 7 9 4 5 1011.1 - 0.2
14/07:00pm 27.0 28.6 18.3 59 5.6 ESE 7 7 4 4 1010.8 - 0.2
14/06:30pm 28.3 28.9 16.7 49 7.3 ESE 9 11 5 6 1010.4 - 0.2
14/06:00pm 29.6 28.7 14.8 40 9.1 ESE 13 15 7 8 1010.1 1009.1 0.2
14/05:30pm 30.7 28.5 14.4 37 10.0 ESE 19 26 10 14 1010.0 - 0.2
14/05:00pm 31.5 31.2 14.4 35 10.5 SW 9 11 5 6 1009.6 - 0.2
14/04:30pm 31.3 31.0 14.4 35 10.4 W 9 13 5 7 1009.6 - 0.2
14/04:00pm 31.1 31.0 14.9 37 10.0 WNW 9 11 5 6 1009.7 - 0.2
14/03:30pm 29.9 29.9 15.2 41 9.1 E 9 13 5 7 1009.9 - 0.2
14/03:00pm 30.3 30.3 15.1 39 9.4 S 9 15 5 8 1010.2 1009.2 0.2
14/02:30pm 30.6 29.9 15.5 40 9.4 SE 13 20 7 11 1010.4 - 0.2
14/02:00pm 31.4 30.3 15.4 38 10.0 SSE 15 26 8 14 1010.6 - 0.2
14/01:30pm 30.2 30.2 16.2 42 8.8 E 11 17 6 9 1011.0 - 0.2
14/01:00pm 28.9 28.9 16.3 46 7.9 S 11 19 6 10 1011.3 - 0.2
14/12:30pm 29.6 29.4 16.6 45 8.2 ESE 13 26 7 14 1011.5 - 0.2
14/12:00pm 28.6 28.1 16.9 49 7.4 SE 15 22 8 12 1012.0 1011.1 0.2
14/11:30am 28.2 27.7 16.8 50 7.2 E 15 24 8 13 1012.4 - 0.2
14/11:00am 27.5 27.3 16.8 52 6.7 E 13 20 7 11 1012.8 - 0.2
14/10:30am 27.3 27.3 17.3 54 6.3 ENE 13 24 7 13 1013.0 - 0.2
14/10:00am 26.4 26.2 17.7 58 5.5 ENE 15 19 8 10 1013.0 - 0.0
14/09:30am 25.3 26.1 18.2 64 4.5 ENE 11 17 6 9 1012.8 - 0.0
14/09:00am 24.1 25.6 18.8 72 3.4 ESE 9 15 5 8 1012.8 1011.9 7.2
14/08:30am 23.1 24.7 19.9 82 2.1 ESE 11 15 6 8 1012.5 - 7.2
14/08:00am 22.1 23.9 20.4 90 1.1 ESE 11 15 6 8 1012.4 - 7.2
14/07:30am 21.3 23.4 20.2 93 0.7 ESE 9 11 5 6 1012.2 - 7.2
14/07:22am 20.8 22.9 20.2 96 0.4 ESE 9 11 5 6 1012.1 - 7.2
14/07:11am 20.3 22.3 20.0 98 0.2 ESE 9 9 5 5 1012.0 - 7.2
14/07:06am 20.3 22.7 20.0 98 0.2 SE 7 9 4 5 1011.9 - 7.2
14/07:00am 20.1 22.6 19.8 98 0.2 SE 6 7 3 4 1012.0 - 7.2
14/06:56am 20.1 22.6 19.8 98 0.2 SE 6 7 3 4 1012.0 - 7.2
14/06:30am 19.9 22.1 19.7 99 0.1 SSE 7 9 4 5 1011.6 - 7.2
14/06:00am 20.2 22.2 19.9 98 0.2 SE 9 11 5 6 1011.2 1010.2 7.2
14/05:30am 20.4 22.4 19.9 97 0.3 SE 9 11 5 6 1010.9 - 7.2
14/05:00am 20.6 22.7 20.1 97 0.3 SSE 9 11 5 6 1010.7 - 7.2
14/04:30am 20.6 22.3 20.1 97 0.3 SE 11 13 6 7 1010.4 - 7.2
14/04:00am 20.8 23.0 20.3 97 0.3 ESE 9 11 5 6 1010.1 - 7.0
14/03:30am 20.9 23.1 20.4 97 0.3 ESE 9 11 5 6 1010.0 - 7.0
14/03:00am 21.0 23.2 20.5 97 0.3 ESE 9 11 5 6 1009.9 1008.9 7.0
14/02:30am 21.3 24.3 20.8 97 0.3 SSE 6 7 3 4 1010.2 - 7.0
14/02:00am 21.4 23.8 20.8 96 0.4 S 9 9 5 5 1010.2 - 7.0
14/01:30am 21.6 25.7 20.8 95 0.5 CALM 0 0 0 0 1010.5 - 7.0
14/01:00am 21.5 24.2 20.7 95 0.5 ENE 7 7 4 4 1010.6 - 7.0
14/12:30am 22.2 25.3 21.0 93 0.8 SSE 6 7 3 4 1010.9 - 7.0
14/12:00am 22.3 23.9 20.8 91 1.0 SSE 13 17 7 9 1011.3 1010.3 7.0
 
Date/Time
EST
Temp
°C
App
Temp
°C
Dew
Point
Rel
Hum
%
Delta-T
°C
Wind Press
QNH
hPa
Press
MSL
hPa
Rain
since 9 am
mm
Dir
 
Spd
km/h
Gust
km/h
Spd
kts
Gust
kts
13/11:30pm 22.4 24.5 21.0 92 0.9 SE 11 13 6 7 1011.5 - 7.0
13/11:00pm 22.1 25.0 21.0 93 0.7 NE 7 9 4 5 1011.2 - 7.0
13/10:30pm 22.2 24.7 21.0 93 0.8 ENE 9 13 5 7 1011.3 - 7.0
13/10:00pm 22.2 22.6 20.7 91 1.0 ENE 19 22 10 12 1010.9 - 7.0
13/09:51pm 22.1 21.6 20.7 92 0.9 NNE 24 30 13 16 1011.1 - 7.0
13/09:27pm 23.6 24.4 19.9 80 2.4 WSW 15 24 8 13 1011.9 - 4.0
13/09:00pm 23.5 25.1 20.0 81 2.3 E 11 15 6 8 1011.3 1010.3 2.4
13/08:30pm 23.7 23.9 19.4 77 2.8 ENE 17 19 9 10 1010.6 - 2.4
13/08:00pm 24.2 24.8 20.2 78 2.6 E 17 20 9 11 1010.1 - 2.4
13/07:30pm 26.0 27.5 20.6 72 3.6 E 13 17 7 9 1009.3 - 2.4
13/07:00pm 26.3 29.0 20.2 69 4.0 NNE 6 7 3 4 1008.5 - 2.4
13/06:30pm 25.9 28.1 20.4 71 3.6 NNE 9 11 5 6 1007.9 - 2.4
13/06:00pm 26.9 28.6 20.2 66 4.4 NE 11 15 6 8 1007.3 1006.4 2.4
13/05:30pm 26.9 28.4 20.6 68 4.2 ENE 13 15 7 8 1007.2 - 2.4
13/05:00pm 26.6 28.9 20.6 69 4.0 E 9 19 5 10 1007.3 - 2.4
13/04:30pm 25.8 26.8 21.8 78 2.7 NE 19 22 10 12 1006.9 - 2.4
13/04:22pm 25.7 25.3 20.2 71 3.6 ENE 22 28 12 15 1006.8 - 2.4
13/04:05pm 25.7 23.1 19.9 70 3.8 SE 33 50 18 27 1007.0 - 1.6
13/04:00pm 27.9 25.9 19.9 61 5.3 SE 30 33 16 18 1006.8 - 0.0
13/03:58pm 28.8 26.8 19.9 58 5.9 SSE 30 33 16 18 1006.7 - 0.0
13/03:30pm 32.4 32.6 15.7 36 10.5 ESE 9 15 5 8 1006.5 - 0.0
13/03:00pm 33.1 32.9 16.7 37 10.5 ESE 13 19 7 10 1006.6 1005.6 0.0
13/02:30pm 31.8 31.8 17.3 42 9.3 ESE 13 17 7 9 1007.0 - 0.0

Other Formats:

Comma delimited format used in spreadsheet applications
http://www.bom.gov.au/fwo/IDQ60801/IDQ60801.94346.axf

JavaScript Object Notation format (JSON) in row-major order
http://www.bom.gov.au/fwo/IDQ60801/IDQ60801.94346.json